Time;durP1;ratioP1;P1;durP2;ratioP2;P2;SDS_P1;SDS_P2;PMS_P1;PMS_P2;Temp;Humidity;BMP_temperature;BMP_pressure;BME280_temperature;BME280_humidity;BME280_pressure;Samples;Min_cycle;Max_cycle;Signal;HPM_P1;HPM_P2
2022/10/29 00:01:27;;;;;;;0.52;0.52;;;14.10;99.90;;;;;;4966745;28;20374;-86
2022/10/29 00:03:52;;;;;;;0.50;0.50;;;14.10;99.90;;;;;;4967804;28;20053;-86
2022/10/29 00:06:18;;;;;;;0.60;0.60;;;14.00;99.90;;;;;;4968522;28;20982;-86
2022/10/29 00:08:45;;;;;;;0.60;0.60;;;14.00;99.90;;;;;;4951926;28;20078;-86
2022/10/29 00:11:17;;;;;;;0.60;0.60;;;14.00;99.90;;;;;;4979606;28;20044;-86
2022/10/29 00:13:44;;;;;;;0.60;0.60;;;14.00;99.90;;;;;;4966685;28;20126;-86
2022/10/29 00:16:19;;;;;;;0.60;0.60;;;13.90;99.90;;;;;;4964136;28;20586;-87
2022/10/29 00:18:45;;;;;;;0.60;0.60;;;13.80;99.90;;;;;;4960106;28;20057;-87
2022/10/29 00:21:19;;;;;;;0.60;0.60;;;13.90;99.90;;;;;;4956883;28;20445;-87
2022/10/29 00:23:45;;;;;;;0.60;0.60;;;13.70;99.90;;;;;;4965476;28;21127;-86
2022/10/29 00:26:11;;;;;;;0.60;0.60;;;13.70;99.90;;;;;;4969976;28;20579;-86
2022/10/29 00:28:37;;;;;;;0.60;0.60;;;13.70;99.90;;;;;;4951430;28;20062;-86
2022/10/29 00:31:05;;;;;;;0.60;0.60;;;13.70;99.90;;;;;;4970115;28;20450;-87
2022/10/29 00:33:31;;;;;;;0.60;0.60;;;13.50;99.90;;;;;;4980018;28;20105;-87
2022/10/29 00:36:06;;;;;;;0.60;0.60;;;13.60;99.90;;;;;;4989798;28;20084;-86
2022/10/29 00:38:33;;;;;;;0.60;0.60;;;13.70;99.90;;;;;;4937856;28;20078;-87
2022/10/29 00:40:59;;;;;;;0.60;0.60;;;13.70;99.90;;;;;;4958404;28;20114;-86
2022/10/29 00:43:26;;;;;;;0.60;0.60;;;13.70;99.90;;;;;;4979562;28;20050;-86
2022/10/29 00:46:03;;;;;;;0.60;0.60;;;13.60;99.90;;;;;;4974050;28;20899;-86
2022/10/29 00:48:32;;;;;;;0.60;0.60;;;13.70;99.90;;;;;;4977433;28;20103;-87
2022/10/29 00:51:01;;;;;;;0.60;0.60;;;13.70;99.90;;;;;;4971262;28;20075;-87
2022/10/29 00:53:32;;;;;;;0.63;0.63;;;13.70;99.90;;;;;;4955593;28;20056;-87
2022/10/29 00:55:59;;;;;;;0.60;0.60;;;13.80;99.90;;;;;;4969836;28;20051;-86
2022/10/29 00:58:25;;;;;;;0.60;0.60;;;13.90;99.90;;;;;;4953760;28;20118;-87
2022/10/29 01:00:51;;;;;;;0.60;0.60;;;13.60;99.90;;;;;;4970311;28;20513;-86
2022/10/29 01:03:17;;;;;;;0.57;0.57;;;13.50;99.90;;;;;;4968927;28;20097;-86
2022/10/29 01:05:44;;;;;;;0.60;0.60;;;13.40;99.90;;;;;;4968922;28;20056;-86
2022/10/29 01:08:12;;;;;;;0.60;0.60;;;13.30;99.90;;;;;;4974245;28;20057;-87
2022/10/29 01:10:59;;;;;;;0.60;0.60;;;13.20;99.90;;;;;;4983887;28;20804;-87
2022/10/29 01:13:49;;;;;;;0.60;0.60;;;13.20;99.90;;;;;;4953274;28;20239;-86
2022/10/29 01:16:30;;;;;;;0.60;0.60;;;13.10;99.90;;;;;;4967144;28;20094;-86
2022/10/29 01:19:15;;;;;;;0.57;0.57;;;12.80;99.90;;;;;;4984789;28;20084;-86
2022/10/29 01:21:43;;;;;;;0.57;0.57;;;13.00;99.90;;;;;;4975007;28;20048;-87
2022/10/29 01:24:18;;;;;;;0.50;0.50;;;13.10;99.90;;;;;;4992782;28;20251;-87
2022/10/29 01:27:15;;;;;;;0.50;0.50;;;13.20;99.90;;;;;;4975018;28;20040;-86
2022/10/29 01:30:09;;;;;;;0.50;0.50;;;13.10;99.90;;;;;;4982911;28;20489;-87
2022/10/29 01:33:15;;;;;;;0.60;0.60;;;13.10;99.90;;;;;;4979445;28;20040;-86
2022/10/29 01:35:51;;;;;;;0.55;0.55;;;13.10;99.90;;;;;;4979350;28;20522;-87
2022/10/29 01:38:39;;;;;;;0.52;0.52;;;13.10;99.90;;;;;;4956339;28;20052;-86
2022/10/29 01:41:13;;;;;;;0.55;0.55;;;13.00;99.90;;;;;;4982446;28;20135;-86
2022/10/29 01:43:54;;;;;;;0.50;0.50;;;13.00;99.90;;;;;;4981202;28;20044;-86
2022/10/29 01:46:23;;;;;;;0.50;0.50;;;12.80;99.90;;;;;;4954426;28;20480;-87
2022/10/29 01:48:53;;;;;;;0.60;0.60;;;12.80;99.90;;;;;;4974184;28;20040;-86
2022/10/29 01:51:29;;;;;;;0.60;0.60;;;12.50;99.90;;;;;;4974733;28;20044;-85
2022/10/29 01:53:57;;;;;;;0.50;0.50;;;12.90;99.90;;;;;;4970896;28;20048;-86
2022/10/29 01:56:23;;;;;;;0.60;0.60;;;13.00;99.90;;;;;;4979646;28;20057;-86
2022/10/29 01:58:53;;;;;;;0.50;0.50;;;13.00;99.90;;;;;;4977716;28;20048;-86
2022/10/29 02:01:40;;;;;;;0.50;0.50;;;13.00;99.90;;;;;;4978148;28;20052;-85
2022/10/29 02:04:40;;;;;;;0.57;0.57;;;13.00;99.90;;;;;;4979749;28;20269;-86
2022/10/29 02:07:46;;;;;;;0.50;0.50;;;12.80;99.90;;;;;;4979129;28;20143;-85
2022/10/29 02:10:26;;;;;;;0.50;0.50;;;12.90;99.90;;;;;;4948445;28;20060;-87
2022/10/29 02:12:53;;;;;;;0.50;0.50;;;13.00;99.90;;;;;;4988617;28;20248;-86
2022/10/29 02:15:41;;;;;;;0.50;0.50;;;13.10;99.90;;;;;;4975482;28;20394;-86
2022/10/29 02:18:07;;;;;;;0.50;0.50;;;13.10;99.90;;;;;;4952014;28;20916;-86
2022/10/29 02:20:34;;;;;;;0.55;0.55;;;12.90;99.90;;;;;;4987900;28;20078;-86
2022/10/29 02:23:00;;;;;;;0.60;0.60;;;12.90;99.90;;;;;;4973616;28;20040;-86
2022/10/29 02:25:27;;;;;;;0.55;0.55;;;12.90;99.90;;;;;;4955622;28;20075;-87
2022/10/29 02:27:52;;;;;;;0.50;0.50;;;12.70;99.90;;;;;;4955411;28;20107;-86
2022/10/29 02:30:18;;;;;;;0.50;0.50;;;12.60;99.90;;;;;;4971374;28;20123;-87
2022/10/29 02:33:03;;;;;;;0.50;0.50;;;12.70;99.90;;;;;;4974579;28;20071;-86
2022/10/29 02:35:29;;;;;;;0.57;0.57;;;12.60;99.90;;;;;;4986539;28;20306;-86
2022/10/29 02:37:54;;;;;;;0.52;0.52;;;12.60;99.90;;;;;;4972460;28;20139;-86
2022/10/29 02:40:20;;;;;;;0.50;0.50;;;12.60;99.90;;;;;;4968923;28;20059;-86
2022/10/29 02:42:46;;;;;;;0.50;0.50;;;12.50;99.90;;;;;;4952603;28;20264;-86
2022/10/29 02:45:12;;;;;;;0.50;0.50;;;12.50;99.90;;;;;;4970807;28;20195;-86
2022/10/29 02:47:37;;;;;;;0.50;0.50;;;12.50;99.90;;;;;;4972068;28;20052;-86
2022/10/29 02:50:04;;;;;;;0.50;0.50;;;12.70;99.90;;;;;;4982006;28;20352;-86
2022/10/29 02:52:29;;;;;;;0.50;0.50;;;12.80;99.90;;;;;;4977351;28;20056;-87
2022/10/29 02:54:56;;;;;;;0.57;0.57;;;12.90;99.90;;;;;;4967358;28;21079;-87
2022/10/29 02:57:21;;;;;;;0.60;0.60;;;12.90;99.90;;;;;;4955935;28;20049;-86
2022/10/29 02:59:47;;;;;;;0.52;0.52;;;12.70;99.90;;;;;;4970499;28;20063;-85
2022/10/29 03:02:13;;;;;;;0.50;0.50;;;12.60;99.90;;;;;;4963062;28;20118;-87
2022/10/29 03:04:40;;;;;;;0.50;0.50;;;12.40;99.90;;;;;;4991622;28;20041;-86
2022/10/29 03:07:06;;;;;;;0.50;0.50;;;12.40;99.90;;;;;;4958043;28;20808;-86
2022/10/29 03:09:31;;;;;;;0.50;0.50;;;12.40;99.90;;;;;;4959748;28;20044;-86
2022/10/29 03:11:57;;;;;;;0.50;0.50;;;12.50;99.90;;;;;;4980293;28;20052;-86
2022/10/29 03:14:23;;;;;;;0.50;0.50;;;12.60;99.90;;;;;;4974071;28;20244;-86
2022/10/29 03:16:48;;;;;;;0.55;0.55;;;12.60;99.90;;;;;;4974010;28;20780;-86
2022/10/29 03:19:14;;;;;;;0.50;0.50;;;12.50;99.90;;;;;;4964981;28;20053;-86
2022/10/29 03:21:40;;;;;;;0.50;0.50;;;12.30;99.90;;;;;;4972821;28;20044;-85
2022/10/29 03:24:06;;;;;;;0.50;0.50;;;12.30;99.90;;;;;;4978921;28;20507;-86
2022/10/29 03:26:32;;;;;;;0.50;0.50;;;12.10;99.90;;;;;;4973429;28;20041;-86
2022/10/29 03:28:58;;;;;;;0.50;0.50;;;12.20;99.90;;;;;;4977020;28;20139;-86
2022/10/29 03:31:23;;;;;;;0.50;0.50;;;12.30;99.90;;;;;;4974396;28;20048;-85
2022/10/29 03:33:49;;;;;;;0.50;0.50;;;12.30;99.90;;;;;;4958084;28;20497;-86
2022/10/29 03:36:15;;;;;;;0.55;0.55;;;12.30;99.90;;;;;;4963123;28;20395;-87
2022/10/29 03:38:41;;;;;;;0.50;0.50;;;12.30;99.90;;;;;;4976377;28;20116;-86
2022/10/29 03:41:09;;;;;;;0.50;0.50;;;12.30;99.90;;;;;;4974493;28;20079;-87
2022/10/29 03:43:38;;;;;;;0.50;0.50;;;12.40;99.90;;;;;;4972019;28;20470;-87
2022/10/29 03:46:05;;;;;;;0.50;0.50;;;12.30;99.90;;;;;;4958496;28;20071;-87
2022/10/29 03:48:31;;;;;;;0.50;0.50;;;12.40;99.90;;;;;;4972120;28;20959;-87
2022/10/29 03:51:04;;;;;;;0.52;0.52;;;12.40;99.90;;;;;;4957836;28;20055;-87
2022/10/29 03:53:31;;;;;;;0.50;0.50;;;12.30;99.90;;;;;;4962660;28;20765;-87
2022/10/29 03:55:58;;;;;;;0.50;0.50;;;12.30;99.90;;;;;;4976952;28;20240;-87
2022/10/29 03:58:25;;;;;;;0.50;0.50;;;12.40;99.90;;;;;;4974692;28;20052;-87
2022/10/29 04:00:56;;;;;;;0.50;0.50;;;12.20;99.90;;;;;;4971218;28;20131;-87
2022/10/29 04:03:22;;;;;;;0.60;0.60;;;12.00;99.90;;;;;;4959270;28;20123;-87
2022/10/29 04:05:47;;;;;;;0.50;0.50;;;11.80;99.90;;;;;;5001225;28;20354;-87
2022/10/29 04:08:13;;;;;;;0.52;0.52;;;11.90;99.90;;;;;;4977712;28;20753;-88
2022/10/29 04:10:46;;;;;;;0.50;0.50;;;12.10;99.90;;;;;;4964489;28;20051;-88
2022/10/29 04:13:13;;;;;;;0.50;0.50;;;12.30;99.90;;;;;;4976097;28;20037;-88
2022/10/29 04:15:39;;;;;;;0.50;0.50;;;12.40;99.90;;;;;;4980400;28;20044;-87
2022/10/29 04:18:05;;;;;;;0.50;0.50;;;12.50;99.90;;;;;;4961725;28;20071;-88
2022/10/29 04:20:31;;;;;;;0.50;0.50;;;12.40;99.90;;;;;;4956693;28;20101;-87
2022/10/29 04:22:57;;;;;;;0.50;0.50;;;12.30;99.90;;;;;;4938489;28;20424;-88
2022/10/29 04:25:22;;;;;;;0.52;0.52;;;12.20;99.90;;;;;;4958598;28;20486;-88
2022/10/29 04:27:48;;;;;;;0.50;0.50;;;12.20;99.90;;;;;;4978552;28;20575;-87
2022/10/29 04:30:14;;;;;;;0.50;0.50;;;12.10;99.90;;;;;;4976582;28;20377;-88
2022/10/29 04:32:40;;;;;;;0.50;0.50;;;12.10;99.90;;;;;;4983144;28;20074;-88
2022/10/29 04:35:06;;;;;;;0.55;0.55;;;12.10;99.90;;;;;;4977270;28;20114;-88
2022/10/29 04:37:32;;;;;;;0.50;0.50;;;12.10;99.90;;;;;;4965276;28;20048;-88
2022/10/29 04:39:58;;;;;;;0.50;0.50;;;12.00;99.90;;;;;;4967319;28;20051;-88
2022/10/29 04:42:24;;;;;;;0.52;0.52;;;11.80;99.90;;;;;;4971235;28;20047;-87
2022/10/29 04:44:50;;;;;;;0.50;0.50;;;11.60;99.90;;;;;;4978905;28;20459;-87
2022/10/29 04:47:15;;;;;;;0.50;0.50;;;11.50;99.90;;;;;;4932716;28;20045;-88
2022/10/29 04:49:41;;;;;;;0.50;0.50;;;11.40;99.90;;;;;;4966327;28;20088;-88
2022/10/29 04:52:10;;;;;;;0.50;0.50;;;11.90;99.90;;;;;;4962826;28;20530;-86
2022/10/29 04:54:36;;;;;;;0.50;0.50;;;12.00;99.90;;;;;;4955598;28;20040;-90
2022/10/29 04:57:02;;;;;;;0.50;0.50;;;12.20;99.90;;;;;;4978660;28;20047;-89
2022/10/29 04:59:28;;;;;;;0.50;0.50;;;12.10;99.90;;;;;;4963936;28;20049;-89
2022/10/29 05:01:53;;;;;;;0.50;0.50;;;12.20;99.90;;;;;;4941642;28;20061;-89
2022/10/29 05:04:19;;;;;;;0.50;0.50;;;12.20;99.90;;;;;;4944427;28;20412;-88
2022/10/29 05:06:45;;;;;;;0.50;0.50;;;12.10;99.90;;;;;;4981799;28;20338;-90
2022/10/29 05:09:13;;;;;;;0.50;0.50;;;12.00;99.90;;;;;;4946958;28;20632;-88
2022/10/29 05:11:39;;;;;;;0.50;0.50;;;11.90;99.90;;;;;;4952849;28;20258;-88
2022/10/29 05:14:05;;;;;;;0.60;0.60;;;11.80;99.90;;;;;;4978953;28;20790;-89
2022/10/29 05:16:31;;;;;;;0.50;0.50;;;11.70;99.90;;;;;;4982491;28;20041;-89
2022/10/29 05:18:57;;;;;;;0.50;0.50;;;11.70;99.90;;;;;;4966949;28;20224;-89
2022/10/29 05:21:23;;;;;;;0.55;0.55;;;11.70;99.90;;;;;;4984253;28;20393;-87
2022/10/29 05:23:49;;;;;;;0.50;0.50;;;11.70;99.90;;;;;;4968379;28;20075;-89
2022/10/29 05:26:15;;;;;;;0.50;0.50;;;11.70;99.90;;;;;;4963605;28;20060;-88
2022/10/29 05:28:40;;;;;;;0.50;0.50;;;11.70;99.90;;;;;;4961155;28;20485;-88
2022/10/29 05:31:06;;;;;;;0.50;0.50;;;11.80;99.90;;;;;;4982839;28;20526;-90
2022/10/29 05:33:35;;;;;;;0.50;0.50;;;11.80;99.90;;;;;;4985374;28;20396;-91
2022/10/29 05:36:01;;;;;;;0.50;0.50;;;11.90;99.90;;;;;;4971875;28;20040;-91
2022/10/29 05:38:26;;;;;;;0.50;0.50;;;11.90;99.90;;;;;;4957315;28;20039;-89
2022/10/29 05:40:52;;;;;;;0.50;0.50;;;12.00;99.90;;;;;;4987107;28;20557;-89
2022/10/29 05:43:20;;;;;;;0.50;0.50;;;12.10;99.90;;;;;;4985705;28;20131;-88
2022/10/29 05:45:46;;;;;;;0.50;0.50;;;12.10;99.90;;;;;;4971998;28;20281;-89
2022/10/29 05:48:12;;;;;;;0.50;0.50;;;12.10;99.90;;;;;;4959016;28;20047;-89
2022/10/29 05:50:38;;;;;;;0.50;0.50;;;12.10;99.90;;;;;;4958792;28;20449;-90
2022/10/29 05:53:05;;;;;;;0.55;0.55;;;12.30;99.90;;;;;;4984219;28;20076;-90
2022/10/29 05:55:33;;;;;;;0.50;0.50;;;12.40;99.90;;;;;;4972116;28;20074;-91
2022/10/29 05:58:01;;;;;;;0.50;0.50;;;12.30;99.90;;;;;;4969576;28;20048;-90
2022/10/29 06:00:30;;;;;;;0.50;0.50;;;12.20;99.90;;;;;;4956144;28;20205;-88
2022/10/29 06:02:59;;;;;;;0.50;0.50;;;12.30;99.90;;;;;;4985382;28;20434;-90
2022/10/29 06:05:25;;;;;;;0.50;0.50;;;12.10;99.90;;;;;;4990953;28;20036;-89
2022/10/29 06:07:55;;;;;;;0.50;0.50;;;12.00;99.90;;;;;;4974039;28;20121;-90
2022/10/29 06:10:22;;;;;;;0.50;0.50;;;12.00;99.90;;;;;;5004576;28;20052;-90
2022/10/29 06:12:48;;;;;;;0.50;0.50;;;12.00;99.90;;;;;;4984040;28;20114;-90
2022/10/29 06:15:17;;;;;;;0.50;0.50;;;11.90;99.90;;;;;;4963311;28;20076;-90
2022/10/29 06:17:44;;;;;;;0.50;0.50;;;12.10;99.90;;;;;;4973060;28;20159;-91
2022/10/29 06:20:11;;;;;;;0.50;0.50;;;12.10;99.90;;;;;;4963432;28;20052;-93
2022/10/29 06:22:37;;;;;;;0.50;0.50;;;12.10;99.90;;;;;;4991936;28;20055;-92
2022/10/29 06:25:04;;;;;;;0.60;0.60;;;12.20;99.90;;;;;;4981308;28;20403;-91
2022/10/29 06:27:30;;;;;;;0.50;0.50;;;12.10;99.90;;;;;;4974603;28;20050;-89
2022/10/29 06:29:56;;;;;;;0.50;0.50;;;12.00;99.90;;;;;;4984898;28;20629;-87
2022/10/29 06:32:21;;;;;;;0.50;0.50;;;12.10;99.90;;;;;;4990108;28;20252;-91
2022/10/29 06:34:47;;;;;;;0.50;0.50;;;12.30;99.90;;;;;;4963882;28;20132;-87
2022/10/29 06:37:13;;;;;;;0.50;0.50;;;12.20;99.90;;;;;;4991005;28;20072;-89
2022/10/29 06:39:39;;;;;;;0.50;0.50;;;12.20;99.90;;;;;;4974370;28;20052;-90
2022/10/29 06:42:05;;;;;;;0.50;0.50;;;12.20;99.90;;;;;;4989834;28;20545;-91
2022/10/29 06:44:31;;;;;;;0.50;0.50;;;12.40;99.90;;;;;;4984618;28;20116;-84
2022/10/29 06:46:57;;;;;;;0.50;0.50;;;12.40;99.90;;;;;;4981096;28;20554;-88
2022/10/29 06:49:22;;;;;;;0.60;0.60;;;12.40;99.90;;;;;;4951118;28;20040;-88
2022/10/29 06:51:51;;;;;;;0.50;0.50;;;12.40;99.90;;;;;;4979521;28;20500;-92
2022/10/29 06:54:17;;;;;;;0.50;0.50;;;12.30;99.90;;;;;;4988153;28;20521;-89
2022/10/29 06:56:45;;;;;;;0.50;0.50;;;12.30;99.90;;;;;;4980047;28;20877;-90
2022/10/29 06:59:14;;;;;;;0.50;0.50;;;12.30;99.90;;;;;;4965944;28;20556;-89
2022/10/29 07:01:51;;;;;;;0.50;0.50;;;12.30;99.90;;;;;;4997714;28;20025;-95
2022/10/29 07:04:20;;;;;;;0.50;0.50;;;12.40;99.90;;;;;;4953312;28;20499;-85
2022/10/29 07:06:46;;;;;;;0.50;0.50;;;12.50;99.90;;;;;;4941367;28;22335;-85
2022/10/29 07:09:11;;;;;;;0.50;0.50;;;12.50;99.90;;;;;;4922310;28;20046;-90
2022/10/29 07:11:38;;;;;;;0.50;0.50;;;12.60;99.90;;;;;;4934958;28;20771;-81
2022/10/29 07:14:08;;;;;;;0.50;0.50;;;12.70;99.90;;;;;;4942872;28;20517;-87
2022/10/29 07:16:35;;;;;;;0.50;0.50;;;12.80;99.90;;;;;;4947139;28;20049;-90
2022/10/29 07:19:04;;;;;;;0.50;0.50;;;12.80;99.90;;;;;;4937464;28;20056;-95
2022/10/29 07:21:29;;;;;;;0.50;0.50;;;12.90;99.90;;;;;;4918129;28;20072;-90
2022/10/29 07:23:56;;;;;;;0.50;0.50;;;12.90;99.90;;;;;;4941199;28;20044;-88
2022/10/29 07:26:21;;;;;;;0.50;0.50;;;13.00;99.90;;;;;;4946010;28;20558;-89
2022/10/29 07:28:47;;;;;;;0.50;0.50;;;13.10;99.90;;;;;;4900732;28;20053;-89
2022/10/29 07:31:38;;;;;;;0.50;0.50;;;13.10;99.90;;;;;;4920176;28;20106;-93
2022/10/29 07:34:33;;;;;;;0.50;0.50;;;13.20;99.90;;;;;;4960359;28;20072;-96
2022/10/29 07:37:02;;;;;;;0.50;0.50;;;13.10;99.90;;;;;;4926996;28;20051;-93
2022/10/29 07:39:30;;;;;;;0.50;0.50;;;13.10;99.90;;;;;;4916812;28;20159;-88
2022/10/29 07:41:56;;;;;;;0.50;0.50;;;13.30;99.90;;;;;;4942810;28;20742;-94
2022/10/29 07:44:22;;;;;;;0.50;0.50;;;13.20;99.90;;;;;;4921578;28;20814;-87
2022/10/29 07:46:48;;;;;;;0.50;0.50;;;13.20;99.90;;;;;;4946749;28;20060;-85
2022/10/29 07:49:14;;;;;;;0.50;0.50;;;13.30;99.90;;;;;;4920695;28;20087;-87
2022/10/29 07:51:40;;;;;;;0.50;0.50;;;13.40;99.90;;;;;;4899950;28;20370;-88
2022/10/29 07:54:06;;;;;;;0.50;0.50;;;13.50;99.90;;;;;;4919029;28;20045;-83
2022/10/29 07:56:32;;;;;;;0.50;0.50;;;13.60;99.90;;;;;;4917745;28;20095;-84
2022/10/29 07:58:58;;;;;;;0.50;0.50;;;13.50;99.90;;;;;;4930228;28;20037;-83
2022/10/29 08:01:24;;;;;;;0.50;0.50;;;13.60;99.90;;;;;;4933365;28;20436;-85
2022/10/29 08:03:50;;;;;;;0.50;0.50;;;13.80;99.90;;;;;;4923462;28;20052;-86
2022/10/29 08:06:16;;;;;;;0.50;0.50;;;13.80;99.90;;;;;;4930801;28;20076;-83
2022/10/29 08:08:42;;;;;;;0.50;0.50;;;13.80;99.90;;;;;;4934687;28;20465;-87
2022/10/29 08:11:08;;;;;;;0.50;0.50;;;14.00;99.90;;;;;;4949565;28;20048;-88
2022/10/29 08:13:34;;;;;;;0.50;0.50;;;14.00;99.90;;;;;;4922792;28;20045;-85
2022/10/29 08:16:00;;;;;;;0.50;0.50;;;14.20;99.90;;;;;;4977665;28;20041;-85
2022/10/29 08:18:25;;;;;;;0.50;0.50;;;14.30;99.90;;;;;;4934557;28;20685;-86
2022/10/29 08:20:51;;;;;;;0.50;0.50;;;14.30;99.90;;;;;;4903076;28;20041;-85
2022/10/29 08:23:17;;;;;;;0.50;0.50;;;14.40;99.90;;;;;;4911957;28;20049;-84
2022/10/29 08:25:43;;;;;;;0.50;0.50;;;14.60;99.90;;;;;;4943247;28;20392;-86
2022/10/29 08:28:11;;;;;;;0.50;0.50;;;14.50;99.90;;;;;;4965048;28;21014;-89
2022/10/29 08:30:38;;;;;;;0.50;0.50;;;14.60;99.90;;;;;;4948802;28;20049;-84
2022/10/29 08:33:04;;;;;;;0.50;0.50;;;14.70;99.90;;;;;;4951962;28;20175;-86
2022/10/29 08:35:31;;;;;;;0.50;0.50;;;14.70;99.90;;;;;;4956307;28;20111;-84
2022/10/29 08:37:57;;;;;;;0.50;0.50;;;14.80;99.90;;;;;;4939308;28;20534;-83
2022/10/29 08:41:06;;;;;;;0.50;0.50;;;14.90;99.90;;;;;;4946846;28;20056;-86
2022/10/29 08:43:43;;;;;;;0.50;0.50;;;15.10;99.90;;;;;;4950604;28;20047;-87
2022/10/29 08:46:22;;;;;;;0.50;0.50;;;15.20;99.90;;;;;;4946333;28;20911;-84
2022/10/29 08:49:02;;;;;;;0.50;0.50;;;15.30;99.90;;;;;;4946945;28;20352;-83
2022/10/29 08:51:41;;;;;;;0.50;0.50;;;15.40;99.90;;;;;;4972085;28;20044;-85
2022/10/29 08:54:13;;;;;;;0.50;0.50;;;15.30;99.90;;;;;;4954735;28;20782;-86
2022/10/29 08:56:46;;;;;;;0.50;0.50;;;15.40;99.90;;;;;;4955782;28;20374;-84
2022/10/29 08:59:16;;;;;;;0.50;0.50;;;15.50;99.90;;;;;;4953277;28;20045;-88
2022/10/29 09:01:42;;;;;;;0.50;0.50;;;15.60;99.90;;;;;;4952400;28;20073;-84
2022/10/29 09:04:26;;;;;;;0.50;0.50;;;15.70;99.90;;;;;;4962812;28;20800;-84
2022/10/29 09:06:58;;;;;;;;;;;15.80;99.90;;;;;;4960992;28;20045;-86
2022/10/29 09:09:47;;;;;;;0.80;0.80;;;16.00;99.90;;;;;;4955658;28;19924;-86
2022/10/29 09:12:41;;;;;;;0.50;0.50;;;16.20;99.90;;;;;;4953865;28;20042;-82
2022/10/29 09:15:28;;;;;;;0.50;0.50;;;16.20;99.90;;;;;;4930595;28;20652;-83
2022/10/29 09:18:16;;;;;;;0.40;0.40;;;16.20;99.90;;;;;;4942671;28;20053;-88
2022/10/29 09:21:14;;;;;;;0.50;0.50;;;16.40;99.90;;;;;;4951327;28;20497;-87
2022/10/29 09:24:28;;;;;;;0.50;0.50;;;16.50;99.90;;;;;;4945833;28;20080;-86
2022/10/29 09:27:14;;;;;;;0.50;0.50;;;17.00;99.90;;;;;;4925199;28;20084;-84
2022/10/29 09:29:46;;;;;;;0.40;0.40;;;17.20;99.90;;;;;;4955193;28;20148;-82
2022/10/29 09:32:24;;;;;;;0.40;0.40;;;17.30;99.90;;;;;;4955900;28;20045;-86
2022/10/29 09:34:55;;;;;;;0.50;0.50;;;17.30;99.90;;;;;;4944424;28;20724;-83
2022/10/29 09:37:30;;;;;;;0.40;0.40;;;17.30;99.90;;;;;;4960415;28;20954;-84
2022/10/29 09:39:57;;;;;;;0.40;0.40;;;17.20;99.90;;;;;;4967406;28;20053;-89
2022/10/29 09:42:35;;;;;;;0.50;0.50;;;17.40;99.90;;;;;;4945726;28;20276;-86
2022/10/29 09:45:03;;;;;;;0.40;0.40;;;17.60;99.90;;;;;;4956937;28;20037;-91
2022/10/29 09:48:14;;;;;;;0.40;0.40;;;17.60;99.90;;;;;;4940124;28;20562;-86
2022/10/29 09:50:51;;;;;;;0.40;0.40;;;17.70;99.90;;;;;;4961549;28;20064;-87
2022/10/29 09:53:17;;;;;;;0.40;0.40;;;17.70;99.90;;;;;;4945669;28;20561;-86
2022/10/29 09:55:48;;;;;;;0.40;0.40;;;17.70;99.90;;;;;;4905253;28;20045;-85
2022/10/29 09:58:24;;;;;;;0.40;0.40;;;17.70;99.90;;;;;;4973202;28;20045;-85
2022/10/29 10:00:51;;;;;;;0.40;0.40;;;17.70;99.90;;;;;;4980685;28;20052;-87
2022/10/29 10:03:46;;;;;;;0.40;0.40;;;17.70;99.90;;;;;;4963423;28;20348;-87
2022/10/29 10:06:14;;;;;;;0.40;0.40;;;17.80;99.90;;;;;;4983540;28;20892;-87
2022/10/29 10:09:00;;;;;;;0.40;0.40;;;17.80;99.90;;;;;;4970355;28;20209;-86
2022/10/29 10:11:48;;;;;;;0.50;0.50;;;17.90;99.90;;;;;;4971790;28;20044;-84
2022/10/29 10:14:19;;;;;;;0.45;0.45;;;18.00;99.90;;;;;;4966330;28;20133;-85
2022/10/29 10:16:45;;;;;;;0.40;0.40;;;18.00;99.90;;;;;;4979350;28;20109;-85
2022/10/29 10:19:25;;;;;;;0.40;0.40;;;18.10;99.90;;;;;;4980065;28;20036;-84
2022/10/29 10:22:03;;;;;;;0.40;0.40;;;18.20;99.90;;;;;;4998747;28;20051;-85
2022/10/29 10:24:34;;;;;;;0.40;0.40;;;18.20;99.90;;;;;;4959301;28;20036;-86
2022/10/29 10:27:20;;;;;;;0.40;0.40;;;18.40;99.90;;;;;;4958343;28;20079;-86
2022/10/29 10:30:11;;;;;;;0.40;0.40;;;18.50;99.90;;;;;;4979648;28;20056;-84
2022/10/29 10:32:37;;;;;;;0.50;0.50;;;18.80;99.90;;;;;;4976076;28;20059;-85
2022/10/29 10:35:26;;;;;;;0.40;0.40;;;19.00;99.90;;;;;;4972959;28;20044;-84
2022/10/29 10:37:52;;;;;;;0.40;0.40;;;19.10;99.90;;;;;;4976407;28;20860;-86
2022/10/29 10:40:23;;;;;;;0.40;0.40;;;19.10;99.90;;;;;;4992847;28;20881;-89
2022/10/29 10:42:54;;;;;;;0.40;0.40;;;19.00;99.90;;;;;;4986128;28;20086;-88
2022/10/29 10:45:32;;;;;;;0.40;0.40;;;19.10;99.90;;;;;;4981429;28;20048;-87
2022/10/29 10:47:59;;;;;;;0.40;0.40;;;19.10;99.90;;;;;;4964124;28;20541;-86
2022/10/29 10:50:31;;;;;;;0.40;0.40;;;19.10;99.90;;;;;;4972309;28;20056;-87
2022/10/29 10:53:01;;;;;;;0.40;0.40;;;19.10;99.90;;;;;;4979280;28;20579;-86
2022/10/29 10:55:31;;;;;;;0.40;0.40;;;19.20;99.90;;;;;;4978317;28;20970;-87
2022/10/29 10:58:10;;;;;;;0.40;0.40;;;19.20;99.90;;;;;;4961986;28;21032;-86
2022/10/29 11:00:53;;;;;;;0.40;0.40;;;19.00;99.90;;;;;;4963116;28;20877;-85
2022/10/29 11:03:42;;;;;;;0.40;0.40;;;18.90;99.90;;;;;;4985242;28;20059;-83
2022/10/29 11:06:24;;;;;;;0.40;0.40;;;18.90;99.90;;;;;;4983529;28;20067;-83
2022/10/29 11:08:55;;;;;;;0.40;0.40;;;18.80;99.90;;;;;;4985962;28;20110;-85
2022/10/29 11:11:30;;;;;;;0.40;0.40;;;18.70;99.90;;;;;;4989155;28;20087;-89
2022/10/29 11:14:05;;;;;;;0.40;0.40;;;18.80;99.90;;;;;;4967766;28;20254;-87
2022/10/29 11:16:50;;;;;;;0.40;0.40;;;18.70;99.90;;;;;;4978922;28;20611;-86
2022/10/29 11:19:31;;;;;;;0.40;0.40;;;18.80;99.90;;;;;;4980500;28;20480;-87
2022/10/29 11:22:16;;;;;;;0.40;0.40;;;18.70;99.90;;;;;;4979051;28;20993;-86
2022/10/29 11:24:44;;;;;;;;;;;18.80;99.90;;;;;;4982167;28;20554;-86
2022/10/29 11:27:34;;;;;;;0.40;0.40;;;18.90;99.90;;;;;;4978265;28;20308;-87
2022/10/29 11:30:08;;;;;;;0.40;0.40;;;18.80;99.90;;;;;;4976754;28;20051;-87
2022/10/29 11:33:06;;;;;;;0.40;0.40;;;18.90;99.90;;;;;;4982613;28;20123;-86
2022/10/29 11:36:02;;;;;;;0.40;0.40;;;19.00;99.90;;;;;;4959547;28;20059;-86
2022/10/29 11:38:42;;;;;;;0.40;0.40;;;19.10;99.90;;;;;;4967351;28;20083;-84
2022/10/29 11:41:30;;;;;;;0.47;0.47;;;19.20;99.90;;;;;;4968196;28;20495;-85
2022/10/29 11:43:56;;;;;;;0.40;0.40;;;19.30;99.90;;;;;;4991169;28;20075;-86
2022/10/29 11:46:44;;;;;;;0.40;0.40;;;19.20;99.90;;;;;;4991194;28;20411;-86
2022/10/29 11:49:13;;;;;;;0.40;0.40;;;19.20;99.90;;;;;;4979117;28;20188;-84
2022/10/29 11:51:56;;;;;;;0.40;0.40;;;19.20;99.90;;;;;;4987169;28;20477;-87
2022/10/29 11:54:41;;;;;;;0.40;0.40;;;19.40;99.90;;;;;;4987816;28;20522;-87
2022/10/29 11:57:36;;;;;;;0.40;0.40;;;19.40;99.90;;;;;;4985338;28;20041;-87
2022/10/29 12:00:19;;;;;;;0.40;0.40;;;19.50;99.90;;;;;;4983397;28;20417;-87
2022/10/29 12:02:57;;;;;;;0.40;0.40;;;19.50;99.90;;;;;;4981627;28;20103;-86
2022/10/29 12:05:34;;;;;;;0.40;0.40;;;19.60;99.90;;;;;;4981853;28;20560;-86
2022/10/29 12:08:23;;;;;;;0.40;0.40;;;19.70;99.90;;;;;;4986688;28;20060;-84
2022/10/29 12:11:04;;;;;;;0.40;0.40;;;19.80;99.90;;;;;;4980340;28;20135;-85
2022/10/29 12:13:42;;;;;;;0.40;0.40;;;19.70;99.90;;;;;;4973324;28;20044;-86
2022/10/29 12:16:39;;;;;;;0.40;0.40;;;19.80;99.90;;;;;;4947062;28;20048;-89
2022/10/29 12:19:35;;;;;;;0.40;0.40;;;19.80;99.90;;;;;;4964272;28;20832;-87
2022/10/29 12:22:37;;;;;;;0.40;0.40;;;19.90;99.90;;;;;;4980564;28;20379;-87
2022/10/29 12:25:36;;;;;;;0.40;0.40;;;20.10;99.90;;;;;;4965263;28;20592;-87
2022/10/29 12:28:28;;;;;;;0.40;0.40;;;20.20;99.90;;;;;;4980778;28;20876;-87
2022/10/29 12:31:03;;;;;;;0.40;0.40;;;20.20;99.90;;;;;;4986739;28;20066;-88
2022/10/29 12:33:55;;;;;;;0.40;0.40;;;20.30;99.90;;;;;;4983440;28;20070;-87
2022/10/29 12:36:45;;;;;;;0.40;0.40;;;20.40;99.90;;;;;;4973919;28;20075;-86
2022/10/29 12:39:28;;;;;;;0.40;0.40;;;20.30;99.90;;;;;;4981893;28;20048;-88
2022/10/29 12:42:23;;;;;;;0.40;0.40;;;20.30;99.90;;;;;;4998706;28;20138;-87
2022/10/29 12:45:16;;;;;;;0.40;0.40;;;20.20;99.90;;;;;;4958825;28;20071;-92
2022/10/29 12:47:51;;;;;;;0.40;0.40;;;20.40;99.90;;;;;;4990626;28;20048;-87
2022/10/29 12:50:53;;;;;;;0.40;0.40;;;20.40;99.90;;;;;;4961732;28;20051;-93
2022/10/29 12:53:27;;;;;;;0.40;0.40;;;20.60;99.90;;;;;;4968294;28;20052;-86
2022/10/29 12:55:56;;;;;;;0.40;0.40;;;20.80;99.90;;;;;;4951645;28;20478;-84
2022/10/29 12:58:41;;;;;;;0.40;0.40;;;20.90;99.90;;;;;;4964782;28;20841;-81
2022/10/29 13:01:30;;;;;;;0.40;0.40;;;21.40;99.90;;;;;;4982382;28;20079;-79
2022/10/29 13:03:56;;;;;;;0.40;0.40;;;21.50;99.90;;;;;;4976541;28;20788;-81
2022/10/29 13:06:41;;;;;;;0.40;0.40;;;21.50;99.90;;;;;;4965012;28;20048;-83
2022/10/29 13:09:17;;;;;;;;;;;21.40;99.90;;;;;;4970527;28;20461;-81
2022/10/29 13:11:50;;;;;;;0.40;0.40;;;21.50;99.90;;;;;;4944464;28;19924;-80
2022/10/29 13:14:25;;;;;;;0.32;0.32;;;21.70;99.90;;;;;;4984284;28;21019;-82
2022/10/29 13:16:52;;;;;;;0.40;0.40;;;21.90;99.90;;;;;;4977565;28;20077;-81